createdAt,value
2022-10-12T00:02:46.984Z,12.92
2022-10-12T00:06:02.919Z,12.97
2022-10-12T00:09:10.807Z,13.14
2022-10-12T00:12:16.982Z,13.16
2022-10-12T00:15:23.474Z,13.01
2022-10-12T00:18:29.408Z,13.02
2022-10-12T00:21:35.527Z,12.93
2022-10-12T00:24:43.223Z,12.89
2022-10-12T00:27:49.569Z,12.69
2022-10-12T00:30:55.888Z,12.89
2022-10-12T00:34:03.586Z,12.78
2022-10-12T00:37:10.083Z,12.76
2022-10-12T00:40:17.944Z,12.82
2022-10-12T00:43:30.977Z,12.77
2022-10-12T00:46:40.778Z,13.01
2022-10-12T00:49:49.670Z,13.00
2022-10-12T00:53:01.058Z,13.02
2022-10-12T00:56:12.732Z,12.87
2022-10-12T00:59:24.214Z,13.02
2022-10-12T01:02:33.244Z,12.94
2022-10-12T01:05:41.758Z,12.93
2022-10-12T01:08:48.399Z,12.83
2022-10-12T01:11:57.838Z,13.00
2022-10-12T01:15:04.710Z,12.93
2022-10-12T01:18:16.833Z,12.93
2022-10-12T01:21:24.279Z,12.91
2022-10-12T01:24:46.007Z,12.68
2022-10-12T01:27:56.366Z,12.75
2022-10-12T01:31:09.695Z,12.76
2022-10-12T01:34:21.525Z,12.86
2022-10-12T01:37:36.556Z,13.02
2022-10-12T01:40:50.790Z,12.85
2022-10-12T01:43:56.742Z,12.73
2022-10-12T01:47:04.379Z,12.94
2022-10-12T01:50:13.885Z,12.90
2022-10-12T01:53:28.651Z,12.85
2022-10-12T01:56:45.597Z,12.84
2022-10-12T02:00:02.621Z,12.90
2022-10-12T02:03:16.778Z,12.85
2022-10-12T02:06:30.075Z,12.69
2022-10-12T02:09:38.584Z,12.38
2022-10-12T02:12:47.375Z,12.30
2022-10-12T02:15:55.388Z,12.52
2022-10-12T02:19:08.328Z,12.39
2022-10-12T02:22:18.031Z,12.16
2022-10-12T02:25:27.763Z,12.61
2022-10-12T02:28:38.415Z,12.72
2022-10-12T02:31:53.888Z,12.82
2022-10-12T02:35:06.934Z,13.00
2022-10-12T02:38:19.679Z,13.02
2022-10-12T02:41:30.726Z,12.86
2022-10-12T02:44:40.217Z,12.53
2022-10-12T02:47:48.906Z,12.62
2022-10-12T02:50:59.043Z,12.56
2022-10-12T02:54:05.307Z,12.65
2022-10-12T02:57:11.363Z,12.72
2022-10-12T03:00:19.096Z,12.55
2022-10-12T03:03:25.288Z,12.73
2022-10-12T03:06:32.988Z,12.62
2022-10-12T03:09:42.055Z,12.76
2022-10-12T03:12:50.369Z,12.85
2022-10-12T03:16:02.813Z,12.67
2022-10-12T03:19:09.229Z,12.77
2022-10-12T03:22:16.883Z,12.82
2022-10-12T03:25:23.093Z,12.86
2022-10-12T03:28:29.609Z,12.81
2022-10-12T03:31:35.896Z,13.01
2022-10-12T03:34:42.305Z,12.78
2022-10-12T03:37:50.306Z,12.93
2022-10-12T03:40:57.394Z,13.03
2022-10-12T03:44:03.794Z,12.98
2022-10-12T03:47:10.014Z,12.97
2022-10-12T03:50:16.331Z,12.98
2022-10-12T03:53:23.889Z,12.96
2022-10-12T03:56:29.916Z,12.84
2022-10-12T03:59:36.189Z,12.90
2022-10-12T04:02:42.563Z,12.96
2022-10-12T04:05:54.759Z,12.90
2022-10-12T04:09:02.563Z,12.77
2022-10-12T04:12:08.811Z,12.92
2022-10-12T04:15:15.535Z,12.87
2022-10-12T04:18:21.955Z,12.81
2022-10-12T04:21:32.130Z,12.52
2022-10-12T04:24:39.727Z,12.66
2022-10-12T04:27:45.704Z,12.89
2022-10-12T04:30:51.788Z,12.71
2022-10-12T04:33:58.055Z,12.74
2022-10-12T04:37:05.019Z,12.79
2022-10-12T04:40:13.379Z,12.86
2022-10-12T04:43:19.483Z,12.69
2022-10-12T04:46:25.659Z,12.87
2022-10-12T04:49:32.236Z,12.88
2022-10-12T04:52:38.270Z,12.76
2022-10-12T04:55:45.987Z,12.56
2022-10-12T04:58:52.526Z,12.73
2022-10-12T05:01:59.033Z,12.66
2022-10-12T05:05:05.303Z,12.79
2022-10-12T05:08:11.181Z,13.02
2022-10-12T05:11:19.026Z,12.87
2022-10-12T05:14:25.243Z,12.96
2022-10-12T05:17:31.640Z,13.12
2022-10-12T05:20:37.939Z,13.13
2022-10-12T05:23:44.404Z,13.13
2022-10-12T05:26:52.037Z,13.05
2022-10-12T05:29:58.303Z,13.06
2022-10-12T05:33:04.850Z,13.14
2022-10-12T05:36:11.250Z,13.04
2022-10-12T05:39:17.091Z,12.90
2022-10-12T05:42:24.490Z,13.08
2022-10-12T05:45:30.664Z,13.14
2022-10-12T05:48:37.093Z,13.27
2022-10-12T05:51:43.509Z,13.14
2022-10-12T05:54:50.165Z,13.11
2022-10-12T05:57:58.067Z,13.00
2022-10-12T06:01:08.402Z,12.83
2022-10-12T06:04:14.568Z,12.92
2022-10-12T06:07:20.771Z,12.87
2022-10-12T06:10:29.976Z,12.72
2022-10-12T06:13:37.635Z,12.97
2022-10-12T06:16:43.668Z,12.87
2022-10-12T06:19:50.026Z,13.13
2022-10-12T06:22:56.243Z,13.34
2022-10-12T06:26:02.656Z,13.04
2022-10-12T06:29:10.290Z,13.35
2022-10-12T06:32:16.603Z,12.90
2022-10-12T06:35:23.234Z,13.14
2022-10-12T06:38:29.738Z,13.42
2022-10-12T06:41:36.389Z,13.16
2022-10-12T06:44:44.057Z,13.24
2022-10-12T06:47:50.217Z,13.58
2022-10-12T06:50:56.499Z,13.60
2022-10-12T06:54:02.479Z,13.68
2022-10-12T06:57:08.873Z,13.62
2022-10-12T07:00:17.163Z,13.87
2022-10-12T07:03:23.379Z,13.72
2022-10-12T07:06:29.720Z,13.91
2022-10-12T07:09:36.523Z,13.72
2022-10-12T07:12:42.745Z,13.64
2022-10-12T07:15:52.146Z,13.78
2022-10-12T07:18:58.136Z,13.74
2022-10-12T07:22:04.196Z,13.67
2022-10-12T07:25:10.820Z,13.92
2022-10-12T07:28:17.431Z,13.98
2022-10-12T07:31:25.970Z,14.31
2022-10-12T07:34:32.467Z,13.95
2022-10-12T07:37:39.091Z,14.42
2022-10-12T07:40:45.836Z,14.26
2022-10-12T07:43:55.962Z,15.02
2022-10-12T07:47:03.446Z,14.94
2022-10-12T07:50:10.387Z,15.24
2022-10-12T07:53:16.654Z,15.39
2022-10-12T07:56:22.864Z,14.65
2022-10-12T07:59:29.240Z,14.64
2022-10-12T08:02:37.513Z,14.99
2022-10-12T08:05:43.820Z,15.56
2022-10-12T08:08:50.382Z,15.58
2022-10-12T08:11:57.357Z,14.93
2022-10-12T08:15:04.012Z,15.25
2022-10-12T08:18:11.676Z,15.27
2022-10-12T08:21:18.960Z,15.46
2022-10-12T08:24:25.031Z,16.00
2022-10-12T08:27:32.385Z,15.30
2022-10-12T08:30:40.465Z,15.09
2022-10-12T08:33:48.140Z,15.27
2022-10-12T08:36:54.143Z,15.82
2022-10-12T08:40:03.274Z,16.28
2022-10-12T08:43:23.052Z,16.23
2022-10-12T08:46:30.480Z,16.10
2022-10-12T08:49:40.427Z,16.43
2022-10-12T08:52:53.963Z,16.10
2022-10-12T08:56:01.527Z,16.47
2022-10-12T08:59:13.112Z,16.39
2022-10-12T09:02:36.224Z,16.47
2022-10-12T09:05:51.762Z,16.20
2022-10-12T09:09:06.484Z,17.16
2022-10-12T09:12:29.700Z,16.00
2022-10-12T09:15:40.449Z,16.41
2022-10-12T09:18:52.503Z,16.88
2022-10-12T09:22:00.128Z,16.38
2022-10-12T09:25:13.172Z,16.99
2022-10-12T09:28:27.073Z,16.38
2022-10-12T09:31:52.524Z,16.76
2022-10-12T09:35:00.579Z,17.21
2022-10-12T09:38:09.377Z,17.65
2022-10-12T09:41:21.963Z,17.64
2022-10-12T09:44:32.819Z,17.17
2022-10-12T09:47:39.308Z,16.59
2022-10-12T09:50:49.639Z,17.54
2022-10-12T09:54:03.358Z,17.98
2022-10-12T09:57:10.105Z,18.32
2022-10-12T10:00:26.048Z,18.02
2022-10-12T10:03:32.604Z,18.80
2022-10-12T10:06:40.232Z,19.72
2022-10-12T10:09:48.372Z,18.36
2022-10-12T10:12:55.827Z,17.67
2022-10-12T10:16:07.831Z,18.45
2022-10-12T10:19:19.559Z,19.07
2022-10-12T10:22:26.056Z,18.01
2022-10-12T10:25:35.024Z,18.31
2022-10-12T10:28:42.986Z,18.69
2022-10-12T10:31:51.905Z,18.48
2022-10-12T10:35:18.683Z,18.07
2022-10-12T10:38:25.516Z,17.59
2022-10-12T10:41:37.099Z,18.11
2022-10-12T10:44:51.159Z,18.12
2022-10-12T10:48:01.545Z,18.42
2022-10-12T10:51:08.776Z,17.68
2022-10-12T10:54:16.444Z,18.43
2022-10-12T10:57:26.330Z,18.10
2022-10-12T11:00:40.055Z,18.70
2022-10-12T11:03:54.734Z,17.71
2022-10-12T11:07:06.746Z,18.03
2022-10-12T11:10:26.272Z,18.01
2022-10-12T11:13:37.267Z,18.03
2022-10-12T11:16:47.448Z,17.90
2022-10-12T11:20:03.124Z,17.53
2022-10-12T11:23:20.658Z,18.24
2022-10-12T11:26:30.721Z,17.99
2022-10-12T11:29:38.989Z,17.96
2022-10-12T11:32:48.253Z,17.40
2022-10-12T11:35:58.369Z,17.55
2022-10-12T11:39:07.795Z,17.69
2022-10-12T11:42:22.497Z,17.94
2022-10-12T11:45:33.092Z,17.80
2022-10-12T11:48:47.795Z,18.15
2022-10-12T11:51:58.468Z,17.35
2022-10-12T11:55:25.203Z,17.87
2022-10-12T11:58:55.830Z,17.86
2022-10-12T12:02:14.493Z,17.45
2022-10-12T12:05:21.096Z,17.78
2022-10-12T12:08:59.921Z,18.17
2022-10-12T12:12:18.862Z,17.52
2022-10-12T12:15:25.127Z,18.06
2022-10-12T12:18:34.177Z,18.16
2022-10-12T12:22:13.207Z,17.60
2022-10-12T12:25:27.136Z,18.13
2022-10-12T12:28:34.660Z,17.80
2022-10-12T12:31:41.161Z,18.06
2022-10-12T12:35:00.085Z,18.23
2022-10-12T12:38:25.491Z,17.78
2022-10-12T12:41:55.069Z,17.48
2022-10-12T12:45:36.962Z,17.42
2022-10-12T12:49:03.272Z,17.64
2022-10-12T12:52:18.045Z,17.35
2022-10-12T12:55:50.349Z,18.01
2022-10-12T12:59:22.139Z,17.96
2022-10-12T13:03:01.558Z,18.10
2022-10-12T13:06:49.215Z,17.61
2022-10-12T13:10:28.193Z,18.61
2022-10-12T13:13:51.296Z,18.17
2022-10-12T13:17:31.710Z,18.40
2022-10-12T13:20:38.966Z,17.86
2022-10-12T13:23:48.108Z,18.32
2022-10-12T13:27:01.568Z,18.30
2022-10-12T13:30:15.092Z,18.20
2022-10-12T13:33:32.103Z,17.74
2022-10-12T13:36:57.591Z,17.79
2022-10-12T13:40:04.122Z,18.02
2022-10-12T13:43:30.613Z,18.02
2022-10-12T13:46:41.971Z,17.84
2022-10-12T13:49:48.321Z,17.42
2022-10-12T13:52:55.564Z,17.41
2022-10-12T13:56:05.358Z,17.71
2022-10-12T13:59:19.207Z,18.11
2022-10-12T14:02:27.691Z,17.24
2022-10-12T14:05:35.294Z,17.30
2022-10-12T14:08:41.803Z,17.38
2022-10-12T14:11:49.204Z,17.07
2022-10-12T14:14:57.402Z,17.33
2022-10-12T14:18:04.436Z,17.17
2022-10-12T14:21:23.719Z,17.06
2022-10-12T14:24:30.395Z,17.05
2022-10-12T14:27:39.331Z,17.04
2022-10-12T14:30:54.244Z,17.25
2022-10-12T14:34:33.658Z,17.04
2022-10-12T14:37:40.526Z,16.79
2022-10-12T14:40:47.181Z,16.80
2022-10-12T14:44:10.331Z,16.66
2022-10-12T14:47:23.106Z,16.87
2022-10-12T14:50:31.601Z,16.69
2022-10-12T14:53:37.935Z,16.69
2022-10-12T14:56:44.575Z,16.55
2022-10-12T14:59:51.208Z,16.55
2022-10-12T15:02:59.032Z,16.63
2022-10-12T15:06:04.973Z,16.43
2022-10-12T15:09:11.365Z,16.35
2022-10-12T15:12:19.359Z,16.08
2022-10-12T15:15:31.991Z,16.24
2022-10-12T15:18:39.615Z,16.14
2022-10-12T15:21:45.822Z,16.10
2022-10-12T15:24:53.250Z,16.05
2022-10-12T15:27:59.391Z,15.94
2022-10-12T15:31:17.618Z,15.74
2022-10-12T15:34:25.897Z,15.63
2022-10-12T15:37:32.215Z,15.81
2022-10-12T15:40:40.438Z,15.69
2022-10-12T15:43:47.047Z,15.59
2022-10-12T15:46:54.423Z,15.55
2022-10-12T15:50:02.125Z,15.53
2022-10-12T15:53:10.334Z,15.28
2022-10-12T15:56:17.499Z,15.48
2022-10-12T15:59:24.143Z,15.36
2022-10-12T16:02:30.230Z,15.48
2022-10-12T16:05:38.679Z,15.57
2022-10-12T16:08:45.254Z,15.16
2022-10-12T16:11:51.887Z,15.23
2022-10-12T16:14:58.429Z,15.27
2022-10-12T16:18:06.387Z,15.25
2022-10-12T16:21:14.450Z,15.11
2022-10-12T16:24:21.130Z,14.98
2022-10-12T16:27:27.666Z,15.16
2022-10-12T16:30:34.418Z,15.01
2022-10-12T16:33:41.531Z,15.01
2022-10-12T16:36:49.123Z,14.92
2022-10-12T16:39:55.383Z,15.02
2022-10-12T16:43:01.714Z,14.99
2022-10-12T16:46:08.723Z,14.98
2022-10-12T16:49:14.663Z,14.82
2022-10-12T16:52:24.617Z,14.92
2022-10-12T16:55:30.894Z,14.79
2022-10-12T16:58:37.354Z,14.72
2022-10-12T17:01:43.373Z,14.69
2022-10-12T17:04:49.831Z,14.83
2022-10-12T17:07:57.669Z,14.70
2022-10-12T17:11:06.990Z,14.57
2022-10-12T17:14:16.735Z,14.34
2022-10-12T17:17:22.776Z,14.24
2022-10-12T17:20:29.280Z,14.35
2022-10-12T17:23:37.238Z,14.15
2022-10-12T17:26:43.667Z,14.06
2022-10-12T17:29:49.882Z,14.10
2022-10-12T17:32:56.225Z,14.19
2022-10-12T17:36:07.321Z,14.05
2022-10-12T17:39:15.722Z,14.14
2022-10-12T17:42:23.171Z,13.92
2022-10-12T17:45:29.799Z,13.69
2022-10-12T17:48:35.891Z,13.77
2022-10-12T17:51:42.910Z,13.64
2022-10-12T17:54:50.739Z,13.57
2022-10-12T17:57:56.814Z,13.23
2022-10-12T18:01:06.301Z,13.33
2022-10-12T18:04:13.963Z,13.49
2022-10-12T18:07:20.425Z,13.49
2022-10-12T18:10:28.693Z,13.49
2022-10-12T18:13:36.219Z,13.42
2022-10-12T18:16:42.538Z,13.31
2022-10-12T18:19:48.815Z,13.37
2022-10-12T18:22:55.406Z,13.43
2022-10-12T18:26:05.463Z,13.47
2022-10-12T18:29:11.875Z,13.36
2022-10-12T18:32:18.393Z,13.33
2022-10-12T18:35:25.035Z,13.58
2022-10-12T18:38:31.319Z,13.39
2022-10-12T18:41:39.223Z,13.17
2022-10-12T18:44:45.649Z,13.15
2022-10-12T18:47:52.982Z,13.07
2022-10-12T18:51:05.205Z,13.21
2022-10-12T18:54:14.195Z,13.24
2022-10-12T18:57:21.749Z,13.31
2022-10-12T19:00:27.971Z,13.23
2022-10-12T19:03:34.070Z,13.23
2022-10-12T19:06:42.722Z,13.11
2022-10-12T19:09:48.704Z,13.06
2022-10-12T19:12:56.335Z,13.00
2022-10-12T19:16:08.549Z,13.11
2022-10-12T19:19:20.751Z,13.01
2022-10-12T19:22:27.385Z,13.10
2022-10-12T19:25:33.467Z,13.27
2022-10-12T19:28:41.375Z,13.11
2022-10-12T19:31:50.149Z,13.17
2022-10-12T19:34:56.238Z,13.31
2022-10-12T19:38:02.814Z,13.22
2022-10-12T19:41:10.126Z,13.25
2022-10-12T19:44:19.361Z,13.26
2022-10-12T19:47:25.259Z,13.06
2022-10-12T19:50:31.955Z,13.15
2022-10-12T19:53:38.389Z,12.89
2022-10-12T19:56:44.774Z,12.79
2022-10-12T19:59:52.493Z,12.93
2022-10-12T20:02:58.418Z,13.02
2022-10-12T20:06:09.130Z,12.74
2022-10-12T20:09:15.477Z,12.83
2022-10-12T20:12:21.865Z,12.96
2022-10-12T20:15:31.263Z,12.82
2022-10-12T20:18:37.911Z,12.91
2022-10-12T20:21:44.159Z,12.88
2022-10-12T20:24:50.381Z,12.82
2022-10-12T20:27:57.127Z,12.56
2022-10-12T20:31:06.507Z,12.51
2022-10-12T20:34:13.032Z,12.35
2022-10-12T20:37:21.566Z,12.53
2022-10-12T20:40:28.035Z,12.74
2022-10-12T20:43:34.203Z,12.50
2022-10-12T20:46:44.567Z,12.35
2022-10-12T20:49:50.422Z,12.20
2022-10-12T20:52:56.742Z,12.39
2022-10-12T20:56:06.969Z,12.16
2022-10-12T20:59:13.202Z,12.39
2022-10-12T21:02:21.604Z,12.35
2022-10-12T21:05:28.166Z,12.26
2022-10-12T21:08:34.341Z,12.37
2022-10-12T21:11:40.855Z,12.07
2022-10-12T21:14:46.944Z,12.17
2022-10-12T21:17:54.535Z,11.96
2022-10-12T21:21:02.482Z,12.01
2022-10-12T21:24:10.557Z,11.85
2022-10-12T21:27:16.627Z,11.62
2022-10-12T21:30:23.153Z,11.73
2022-10-12T21:33:30.864Z,11.91
2022-10-12T21:36:37.808Z,11.56
2022-10-12T21:39:43.986Z,11.41
2022-10-12T21:42:50.308Z,11.57
2022-10-12T21:45:56.732Z,11.71
2022-10-12T21:49:06.673Z,11.69
2022-10-12T21:52:12.669Z,11.25
2022-10-12T21:55:19.197Z,11.13
2022-10-12T21:58:25.553Z,11.32
2022-10-12T22:01:34.774Z,11.57
2022-10-12T22:04:42.462Z,11.41
2022-10-12T22:07:48.703Z,11.50
2022-10-12T22:10:55.222Z,11.40
2022-10-12T22:14:03.338Z,11.53
2022-10-12T22:17:09.601Z,11.33
2022-10-12T22:20:17.636Z,11.28
2022-10-12T22:23:23.814Z,10.88
2022-10-12T22:26:30.331Z,11.00
2022-10-12T22:29:36.771Z,11.13
2022-10-12T22:32:42.792Z,11.00
2022-10-12T22:35:58.106Z,11.13
2022-10-12T22:39:06.059Z,11.10
2022-10-12T22:42:12.483Z,11.11
2022-10-12T22:45:18.799Z,10.82
2022-10-12T22:48:25.824Z,11.01
2022-10-12T22:51:34.707Z,11.13
2022-10-12T22:54:40.707Z,10.93
2022-10-12T22:57:47.073Z,11.09
2022-10-12T23:00:53.312Z,10.90
2022-10-12T23:03:59.138Z,10.57
2022-10-12T23:07:06.862Z,10.17
2022-10-12T23:10:12.970Z,10.57
2022-10-12T23:13:19.214Z,10.12
2022-10-12T23:16:27.906Z,10.01
2022-10-12T23:19:33.915Z,10.27
2022-10-12T23:22:41.608Z,10.38
2022-10-12T23:25:47.844Z,9.83
2022-10-12T23:28:55.304Z,9.77
2022-10-12T23:32:01.761Z,9.45
2022-10-12T23:35:08.751Z,10.22
2022-10-12T23:38:16.620Z,9.94
2022-10-12T23:41:23.139Z,9.82
2022-10-12T23:44:29.576Z,9.78
2022-10-12T23:47:36.046Z,9.49
2022-10-12T23:50:43.118Z,9.85
2022-10-12T23:53:50.648Z,9.49
2022-10-12T23:56:56.624Z,9.55
